sensor_id;sensor_type;location;lat;lon;timestamp;temperature;humidity
41294;DHT22;27037;52.010;4.446;2022-12-29T00:02:16;11.20;99.90
41294;DHT22;27037;52.010;4.446;2022-12-29T00:04:42;11.20;99.90
41294;DHT22;27037;52.010;4.446;2022-12-29T00:07:08;11.20;99.90
41294;DHT22;27037;52.010;4.446;2022-12-29T00:09:34;11.30;99.90
41294;DHT22;27037;52.010;4.446;2022-12-29T00:12:01;11.30;99.90
41294;DHT22;27037;52.010;4.446;2022-12-29T00:14:27;11.30;99.90
41294;DHT22;27037;52.010;4.446;2022-12-29T00:17:12;11.30;99.90
41294;DHT22;27037;52.010;4.446;2022-12-29T00:19:38;11.30;99.90
41294;DHT22;27037;52.010;4.446;2022-12-29T00:22:22;11.30;99.90
41294;DHT22;27037;52.010;4.446;2022-12-29T00:25:11;11.30;99.90
41294;DHT22;27037;52.010;4.446;2022-12-29T00:27:57;11.20;99.90
41294;DHT22;27037;52.010;4.446;2022-12-29T00:30:41;11.20;99.90
41294;DHT22;27037;52.010;4.446;2022-12-29T00:33:29;11.20;99.90
41294;DHT22;27037;52.010;4.446;2022-12-29T00:36:20;11.20;99.90
41294;DHT22;27037;52.010;4.446;2022-12-29T00:38:50;11.20;99.90
41294;DHT22;27037;52.010;4.446;2022-12-29T00:41:35;11.20;99.90
41294;DHT22;27037;52.010;4.446;2022-12-29T00:44:19;11.30;99.90
41294;DHT22;27037;52.010;4.446;2022-12-29T00:46:45;11.20;99.90
41294;DHT22;27037;52.010;4.446;2022-12-29T00:49:12;11.20;99.90
41294;DHT22;27037;52.010;4.446;2022-12-29T00:52:01;11.20;99.90
41294;DHT22;27037;52.010;4.446;2022-12-29T00:54:33;11.20;99.90
41294;DHT22;27037;52.010;4.446;2022-12-29T00:57:00;11.20;99.90
41294;DHT22;27037;52.010;4.446;2022-12-29T00:59:26;11.10;99.90
41294;DHT22;27037;52.010;4.446;2022-12-29T01:01:53;11.10;99.90
41294;DHT22;27037;52.010;4.446;2022-12-29T01:04:20;11.10;99.90
41294;DHT22;27037;52.010;4.446;2022-12-29T01:06:46;11.10;99.90
41294;DHT22;27037;52.010;4.446;2022-12-29T01:09:12;11.10;99.90
41294;DHT22;27037;52.010;4.446;2022-12-29T01:11:57;11.00;99.90
41294;DHT22;27037;52.010;4.446;2022-12-29T01:14:23;11.10;99.90
41294;DHT22;27037;52.010;4.446;2022-12-29T01:16:49;11.10;99.90
41294;DHT22;27037;52.010;4.446;2022-12-29T01:19:15;11.10;99.90
41294;DHT22;27037;52.010;4.446;2022-12-29T01:21:42;11.10;99.90
41294;DHT22;27037;52.010;4.446;2022-12-29T01:24:07;11.10;99.90
41294;DHT22;27037;52.010;4.446;2022-12-29T01:26:33;11.00;99.90
41294;DHT22;27037;52.010;4.446;2022-12-29T01:28:59;11.00;99.90
41294;DHT22;27037;52.010;4.446;2022-12-29T01:31:24;11.00;99.90
41294;DHT22;27037;52.010;4.446;2022-12-29T01:33:50;11.00;99.90
41294;DHT22;27037;52.010;4.446;2022-12-29T01:36:18;11.00;99.90
41294;DHT22;27037;52.010;4.446;2022-12-29T01:38:44;11.00;99.90
41294;DHT22;27037;52.010;4.446;2022-12-29T01:41:13;11.00;99.90
41294;DHT22;27037;52.010;4.446;2022-12-29T01:43:43;11.00;99.90
41294;DHT22;27037;52.010;4.446;2022-12-29T01:49:15;10.90;99.90
41294;DHT22;27037;52.010;4.446;2022-12-29T01:51:48;10.90;99.90
41294;DHT22;27037;52.010;4.446;2022-12-29T01:54:25;10.90;99.90
41294;DHT22;27037;52.010;4.446;2022-12-29T01:56:54;10.90;99.90
41294;DHT22;27037;52.010;4.446;2022-12-29T01:59:24;10.80;99.90
41294;DHT22;27037;52.010;4.446;2022-12-29T02:01:51;10.80;99.90
41294;DHT22;27037;52.010;4.446;2022-12-29T02:04:18;10.80;99.90
41294;DHT22;27037;52.010;4.446;2022-12-29T02:06:57;10.80;99.90
41294;DHT22;27037;52.010;4.446;2022-12-29T02:09:24;10.80;99.90
41294;DHT22;27037;52.010;4.446;2022-12-29T02:11:51;10.80;99.90
41294;DHT22;27037;52.010;4.446;2022-12-29T02:14:18;10.90;99.90
41294;DHT22;27037;52.010;4.446;2022-12-29T02:16:51;10.90;99.90
41294;DHT22;27037;52.010;4.446;2022-12-29T02:30:51;10.90;99.90
41294;DHT22;27037;52.010;4.446;2022-12-29T02:36:30;10.90;99.90
41294;DHT22;27037;52.010;4.446;2022-12-29T02:42:22;10.80;99.90
41294;DHT22;27037;52.010;4.446;2022-12-29T02:44:55;10.70;99.90
41294;DHT22;27037;52.010;4.446;2022-12-29T02:47:42;10.70;99.90
41294;DHT22;27037;52.010;4.446;2022-12-29T02:50:27;10.60;99.90
41294;DHT22;27037;52.010;4.446;2022-12-29T02:53:01;10.60;99.90
41294;DHT22;27037;52.010;4.446;2022-12-29T02:55:29;10.60;99.90
41294;DHT22;27037;52.010;4.446;2022-12-29T02:58:19;10.60;99.90
41294;DHT22;27037;52.010;4.446;2022-12-29T03:03:58;10.70;99.90
41294;DHT22;27037;52.010;4.446;2022-12-29T03:06:47;10.70;99.90
41294;DHT22;27037;52.010;4.446;2022-12-29T03:14:50;10.80;99.90
41294;DHT22;27037;52.010;4.446;2022-12-29T03:20:08;10.70;99.90
41294;DHT22;27037;52.010;4.446;2022-12-29T03:22:39;10.70;99.90
41294;DHT22;27037;52.010;4.446;2022-12-29T03:25:23;10.70;99.90
41294;DHT22;27037;52.010;4.446;2022-12-29T03:27:54;10.70;99.90
41294;DHT22;27037;52.010;4.446;2022-12-29T03:30:21;10.70;99.90
41294;DHT22;27037;52.010;4.446;2022-12-29T03:32:52;10.80;99.90
41294;DHT22;27037;52.010;4.446;2022-12-29T03:35:22;10.70;99.90
41294;DHT22;27037;52.010;4.446;2022-12-29T03:38:21;10.70;99.90
41294;DHT22;27037;52.010;4.446;2022-12-29T03:40:52;10.80;99.90
41294;DHT22;27037;52.010;4.446;2022-12-29T03:43:19;10.70;99.90
41294;DHT22;27037;52.010;4.446;2022-12-29T03:45:45;10.70;99.90
41294;DHT22;27037;52.010;4.446;2022-12-29T03:48:10;10.70;99.90
41294;DHT22;27037;52.010;4.446;2022-12-29T03:50:36;10.70;99.90
41294;DHT22;27037;52.010;4.446;2022-12-29T03:53:01;10.70;99.90
41294;DHT22;27037;52.010;4.446;2022-12-29T03:55:27;10.70;99.90
41294;DHT22;27037;52.010;4.446;2022-12-29T03:57:53;10.70;99.90
41294;DHT22;27037;52.010;4.446;2022-12-29T04:00:19;10.70;99.90
41294;DHT22;27037;52.010;4.446;2022-12-29T04:02:44;10.70;99.90
41294;DHT22;27037;52.010;4.446;2022-12-29T04:05:10;10.70;99.90
41294;DHT22;27037;52.010;4.446;2022-12-29T04:07:36;10.60;99.90
41294;DHT22;27037;52.010;4.446;2022-12-29T04:10:02;10.60;99.90
41294;DHT22;27037;52.010;4.446;2022-12-29T04:12:29;10.60;99.90
41294;DHT22;27037;52.010;4.446;2022-12-29T04:14:54;10.50;99.90
41294;DHT22;27037;52.010;4.446;2022-12-29T04:17:20;10.50;99.90
41294;DHT22;27037;52.010;4.446;2022-12-29T04:19:45;10.50;99.90
41294;DHT22;27037;52.010;4.446;2022-12-29T04:22:11;10.50;99.90
41294;DHT22;27037;52.010;4.446;2022-12-29T04:24:37;10.40;99.90
41294;DHT22;27037;52.010;4.446;2022-12-29T04:27:03;10.30;99.90
41294;DHT22;27037;52.010;4.446;2022-12-29T04:29:29;10.30;99.90
41294;DHT22;27037;52.010;4.446;2022-12-29T04:31:55;10.20;99.90
41294;DHT22;27037;52.010;4.446;2022-12-29T04:34:21;10.30;99.90
41294;DHT22;27037;52.010;4.446;2022-12-29T04:36:46;10.20;99.90
41294;DHT22;27037;52.010;4.446;2022-12-29T04:39:12;10.20;99.90
41294;DHT22;27037;52.010;4.446;2022-12-29T04:41:38;10.10;99.90
41294;DHT22;27037;52.010;4.446;2022-12-29T04:44:04;10.10;99.90
41294;DHT22;27037;52.010;4.446;2022-12-29T04:46:29;10.10;99.90
41294;DHT22;27037;52.010;4.446;2022-12-29T04:48:55;10.10;99.90
41294;DHT22;27037;52.010;4.446;2022-12-29T04:51:21;10.10;99.90
41294;DHT22;27037;52.010;4.446;2022-12-29T04:53:47;10.10;99.90
41294;DHT22;27037;52.010;4.446;2022-12-29T04:56:13;10.10;99.90
41294;DHT22;27037;52.010;4.446;2022-12-29T04:58:39;10.00;99.90
41294;DHT22;27037;52.010;4.446;2022-12-29T05:01:04;10.00;99.90
41294;DHT22;27037;52.010;4.446;2022-12-29T05:03:30;10.10;99.90
41294;DHT22;27037;52.010;4.446;2022-12-29T05:05:56;10.10;99.90
41294;DHT22;27037;52.010;4.446;2022-12-29T05:08:22;10.00;99.90
41294;DHT22;27037;52.010;4.446;2022-12-29T05:10:50;10.00;99.90
41294;DHT22;27037;52.010;4.446;2022-12-29T05:13:17;10.00;99.90
41294;DHT22;27037;52.010;4.446;2022-12-29T05:15:50;10.00;99.90
41294;DHT22;27037;52.010;4.446;2022-12-29T05:18:17;10.00;99.90
41294;DHT22;27037;52.010;4.446;2022-12-29T05:20:43;9.90;99.90
41294;DHT22;27037;52.010;4.446;2022-12-29T05:23:08;9.90;99.90
41294;DHT22;27037;52.010;4.446;2022-12-29T05:25:34;9.90;99.90
41294;DHT22;27037;52.010;4.446;2022-12-29T05:28:00;9.90;99.90
41294;DHT22;27037;52.010;4.446;2022-12-29T05:30:25;9.90;99.90
41294;DHT22;27037;52.010;4.446;2022-12-29T05:32:51;9.80;99.90
41294;DHT22;27037;52.010;4.446;2022-12-29T05:35:17;9.80;99.90
41294;DHT22;27037;52.010;4.446;2022-12-29T05:37:42;9.80;99.90
41294;DHT22;27037;52.010;4.446;2022-12-29T05:40:08;9.80;99.90
41294;DHT22;27037;52.010;4.446;2022-12-29T05:42:34;9.90;99.90
41294;DHT22;27037;52.010;4.446;2022-12-29T05:45:00;9.90;99.90
41294;DHT22;27037;52.010;4.446;2022-12-29T05:47:25;9.90;99.90
41294;DHT22;27037;52.010;4.446;2022-12-29T05:49:51;9.90;99.90
41294;DHT22;27037;52.010;4.446;2022-12-29T05:52:17;9.90;99.90
41294;DHT22;27037;52.010;4.446;2022-12-29T05:54:43;9.80;99.90
41294;DHT22;27037;52.010;4.446;2022-12-29T05:57:09;9.80;99.90
41294;DHT22;27037;52.010;4.446;2022-12-29T05:59:35;9.80;99.90
41294;DHT22;27037;52.010;4.446;2022-12-29T06:02:00;9.70;99.90
41294;DHT22;27037;52.010;4.446;2022-12-29T06:04:26;9.70;99.90
41294;DHT22;27037;52.010;4.446;2022-12-29T06:06:52;9.60;99.90
41294;DHT22;27037;52.010;4.446;2022-12-29T06:09:17;9.60;99.90
41294;DHT22;27037;52.010;4.446;2022-12-29T06:11:43;9.60;99.90
41294;DHT22;27037;52.010;4.446;2022-12-29T06:14:09;9.60;99.90
41294;DHT22;27037;52.010;4.446;2022-12-29T06:16:36;9.60;99.90
41294;DHT22;27037;52.010;4.446;2022-12-29T06:19:02;9.60;99.90
41294;DHT22;27037;52.010;4.446;2022-12-29T06:21:27;9.60;99.90
41294;DHT22;27037;52.010;4.446;2022-12-29T06:23:53;9.60;99.90
41294;DHT22;27037;52.010;4.446;2022-12-29T06:26:19;9.60;99.90
41294;DHT22;27037;52.010;4.446;2022-12-29T06:28:44;9.60;99.90
41294;DHT22;27037;52.010;4.446;2022-12-29T06:31:10;9.60;99.90
41294;DHT22;27037;52.010;4.446;2022-12-29T06:33:37;9.60;99.90
41294;DHT22;27037;52.010;4.446;2022-12-29T06:36:03;9.60;99.90
41294;DHT22;27037;52.010;4.446;2022-12-29T06:38:29;9.60;99.90
41294;DHT22;27037;52.010;4.446;2022-12-29T06:40:55;9.60;99.90
41294;DHT22;27037;52.010;4.446;2022-12-29T06:43:21;9.60;99.90
41294;DHT22;27037;52.010;4.446;2022-12-29T06:45:47;9.60;99.90
41294;DHT22;27037;52.010;4.446;2022-12-29T06:48:12;9.60;99.90
41294;DHT22;27037;52.010;4.446;2022-12-29T06:50:38;9.50;99.90
41294;DHT22;27037;52.010;4.446;2022-12-29T06:53:04;9.50;99.90
41294;DHT22;27037;52.010;4.446;2022-12-29T06:55:29;9.40;99.90
41294;DHT22;27037;52.010;4.446;2022-12-29T06:57:56;9.40;99.90
41294;DHT22;27037;52.010;4.446;2022-12-29T07:00:23;9.40;99.90
41294;DHT22;27037;52.010;4.446;2022-12-29T07:02:48;9.40;99.90
41294;DHT22;27037;52.010;4.446;2022-12-29T07:05:15;9.40;99.90
41294;DHT22;27037;52.010;4.446;2022-12-29T07:07:40;9.40;99.90
41294;DHT22;27037;52.010;4.446;2022-12-29T07:10:06;9.40;99.90
41294;DHT22;27037;52.010;4.446;2022-12-29T07:12:32;9.40;99.90
41294;DHT22;27037;52.010;4.446;2022-12-29T07:14:58;9.50;99.90
41294;DHT22;27037;52.010;4.446;2022-12-29T07:17:23;9.50;99.90
41294;DHT22;27037;52.010;4.446;2022-12-29T07:19:49;9.50;99.90
41294;DHT22;27037;52.010;4.446;2022-12-29T07:22:15;9.50;99.90
41294;DHT22;27037;52.010;4.446;2022-12-29T07:24:40;9.50;99.90
41294;DHT22;27037;52.010;4.446;2022-12-29T07:27:06;9.60;99.90
41294;DHT22;27037;52.010;4.446;2022-12-29T07:29:32;9.60;99.90
41294;DHT22;27037;52.010;4.446;2022-12-29T07:31:58;9.60;99.90
41294;DHT22;27037;52.010;4.446;2022-12-29T07:34:24;9.60;99.90
41294;DHT22;27037;52.010;4.446;2022-12-29T07:36:50;9.60;99.90
41294;DHT22;27037;52.010;4.446;2022-12-29T07:39:15;9.70;99.90
41294;DHT22;27037;52.010;4.446;2022-12-29T07:41:41;9.70;99.90
41294;DHT22;27037;52.010;4.446;2022-12-29T07:44:08;9.70;99.90
41294;DHT22;27037;52.010;4.446;2022-12-29T07:46:34;9.70;99.90
41294;DHT22;27037;52.010;4.446;2022-12-29T07:49:00;9.80;99.90
41294;DHT22;27037;52.010;4.446;2022-12-29T07:51:25;9.80;99.90
41294;DHT22;27037;52.010;4.446;2022-12-29T07:53:51;9.80;99.90
41294;DHT22;27037;52.010;4.446;2022-12-29T07:56:16;9.80;99.90
41294;DHT22;27037;52.010;4.446;2022-12-29T07:58:42;9.90;99.90
41294;DHT22;27037;52.010;4.446;2022-12-29T08:01:08;9.90;99.90
41294;DHT22;27037;52.010;4.446;2022-12-29T08:03:34;9.90;99.90
41294;DHT22;27037;52.010;4.446;2022-12-29T08:06:02;9.90;99.90
41294;DHT22;27037;52.010;4.446;2022-12-29T08:08:28;9.90;99.90
41294;DHT22;27037;52.010;4.446;2022-12-29T08:10:54;9.90;99.90
41294;DHT22;27037;52.010;4.446;2022-12-29T08:13:20;9.90;99.90
41294;DHT22;27037;52.010;4.446;2022-12-29T08:15:46;9.90;99.90
41294;DHT22;27037;52.010;4.446;2022-12-29T08:18:11;9.80;99.90
41294;DHT22;27037;52.010;4.446;2022-12-29T08:20:37;9.80;99.90
41294;DHT22;27037;52.010;4.446;2022-12-29T08:23:03;9.70;99.90
41294;DHT22;27037;52.010;4.446;2022-12-29T08:25:28;9.70;99.90
41294;DHT22;27037;52.010;4.446;2022-12-29T08:27:54;9.70;99.90
41294;DHT22;27037;52.010;4.446;2022-12-29T08:30:19;9.70;99.90
41294;DHT22;27037;52.010;4.446;2022-12-29T08:32:45;9.70;99.90
41294;DHT22;27037;52.010;4.446;2022-12-29T08:35:11;9.70;99.90
41294;DHT22;27037;52.010;4.446;2022-12-29T08:37:38;9.70;99.90
41294;DHT22;27037;52.010;4.446;2022-12-29T08:40:05;9.70;99.90
41294;DHT22;27037;52.010;4.446;2022-12-29T08:42:31;9.70;99.90
41294;DHT22;27037;52.010;4.446;2022-12-29T08:44:58;9.70;99.90
41294;DHT22;27037;52.010;4.446;2022-12-29T08:47:24;9.60;99.90
41294;DHT22;27037;52.010;4.446;2022-12-29T08:49:51;9.60;99.90
41294;DHT22;27037;52.010;4.446;2022-12-29T08:52:16;9.50;99.90
41294;DHT22;27037;52.010;4.446;2022-12-29T08:54:42;9.50;99.90
41294;DHT22;27037;52.010;4.446;2022-12-29T08:57:08;9.40;99.90
41294;DHT22;27037;52.010;4.446;2022-12-29T08:59:34;9.40;99.90
41294;DHT22;27037;52.010;4.446;2022-12-29T09:02:00;9.30;99.90
41294;DHT22;27037;52.010;4.446;2022-12-29T09:04:27;9.30;99.90
41294;DHT22;27037;52.010;4.446;2022-12-29T09:06:53;9.30;99.90
41294;DHT22;27037;52.010;4.446;2022-12-29T09:09:19;9.30;99.90
41294;DHT22;27037;52.010;4.446;2022-12-29T09:11:45;9.30;99.90
41294;DHT22;27037;52.010;4.446;2022-12-29T09:14:12;9.30;99.90
41294;DHT22;27037;52.010;4.446;2022-12-29T09:16:38;9.30;99.90
41294;DHT22;27037;52.010;4.446;2022-12-29T09:19:04;9.30;99.90
41294;DHT22;27037;52.010;4.446;2022-12-29T09:21:30;9.30;99.90
41294;DHT22;27037;52.010;4.446;2022-12-29T09:23:57;9.30;99.90
41294;DHT22;27037;52.010;4.446;2022-12-29T09:26:22;9.40;99.90
41294;DHT22;27037;52.010;4.446;2022-12-29T09:28:48;9.40;99.90
41294;DHT22;27037;52.010;4.446;2022-12-29T09:31:13;9.40;99.90
41294;DHT22;27037;52.010;4.446;2022-12-29T09:33:39;9.40;99.90
41294;DHT22;27037;52.010;4.446;2022-12-29T09:36:05;9.40;99.90
41294;DHT22;27037;52.010;4.446;2022-12-29T09:38:31;9.40;99.90
41294;DHT22;27037;52.010;4.446;2022-12-29T09:41:05;9.50;99.90
41294;DHT22;27037;52.010;4.446;2022-12-29T09:46:23;9.50;99.90
41294;DHT22;27037;52.010;4.446;2022-12-29T09:51:39;9.60;99.90
41294;DHT22;27037;52.010;4.446;2022-12-29T09:56:56;9.70;99.90
41294;DHT22;27037;52.010;4.446;2022-12-29T09:59:42;9.70;99.90
41294;DHT22;27037;52.010;4.446;2022-12-29T10:02:36;9.80;99.90
41294;DHT22;27037;52.010;4.446;2022-12-29T10:05:04;9.80;99.90
41294;DHT22;27037;52.010;4.446;2022-12-29T10:07:45;9.80;99.90
41294;DHT22;27037;52.010;4.446;2022-12-29T10:15:41;9.80;99.90
41294;DHT22;27037;52.010;4.446;2022-12-29T10:23:47;9.80;99.90
41294;DHT22;27037;52.010;4.446;2022-12-29T10:26:18;9.80;99.90
41294;DHT22;27037;52.010;4.446;2022-12-29T10:28:52;9.80;99.90
41294;DHT22;27037;52.010;4.446;2022-12-29T10:31:23;9.90;99.90
41294;DHT22;27037;52.010;4.446;2022-12-29T10:33:56;9.90;99.90
41294;DHT22;27037;52.010;4.446;2022-12-29T10:36:34;9.90;99.90
41294;DHT22;27037;52.010;4.446;2022-12-29T10:42:11;9.90;99.90
41294;DHT22;27037;52.010;4.446;2022-12-29T10:44:38;9.90;99.90
41294;DHT22;27037;52.010;4.446;2022-12-29T10:47:08;10.00;99.90
41294;DHT22;27037;52.010;4.446;2022-12-29T10:49:40;10.10;99.90
41294;DHT22;27037;52.010;4.446;2022-12-29T10:52:08;10.20;99.90
41294;DHT22;27037;52.010;4.446;2022-12-29T10:55:03;10.30;99.90
41294;DHT22;27037;52.010;4.446;2022-12-29T10:57:34;10.40;99.90
41294;DHT22;27037;52.010;4.446;2022-12-29T11:00:00;10.50;99.90
41294;DHT22;27037;52.010;4.446;2022-12-29T11:07:47;10.70;99.90
41294;DHT22;27037;52.010;4.446;2022-12-29T11:10:20;10.70;99.90
41294;DHT22;27037;52.010;4.446;2022-12-29T11:13:05;10.80;99.90
41294;DHT22;27037;52.010;4.446;2022-12-29T11:15:53;10.80;99.90
41294;DHT22;27037;52.010;4.446;2022-12-29T11:18:26;10.90;99.90
41294;DHT22;27037;52.010;4.446;2022-12-29T11:21:03;10.90;99.90
41294;DHT22;27037;52.010;4.446;2022-12-29T11:23:37;10.80;99.90
41294;DHT22;27037;52.010;4.446;2022-12-29T11:28:36;10.60;99.90
41294;DHT22;27037;52.010;4.446;2022-12-29T11:31:04;10.50;99.90
41294;DHT22;27037;52.010;4.446;2022-12-29T11:33:32;10.40;99.90
41294;DHT22;27037;52.010;4.446;2022-12-29T11:38:37;10.40;99.90
41294;DHT22;27037;52.010;4.446;2022-12-29T11:41:04;10.30;99.90
41294;DHT22;27037;52.010;4.446;2022-12-29T11:43:34;10.30;99.90
41294;DHT22;27037;52.010;4.446;2022-12-29T11:46:02;10.30;99.90
41294;DHT22;27037;52.010;4.446;2022-12-29T11:48:33;10.30;99.90
41294;DHT22;27037;52.010;4.446;2022-12-29T11:50:59;10.30;99.90
41294;DHT22;27037;52.010;4.446;2022-12-29T11:53:52;10.30;99.90
41294;DHT22;27037;52.010;4.446;2022-12-29T11:56:36;10.30;99.90
41294;DHT22;27037;52.010;4.446;2022-12-29T11:59:42;10.30;99.90
41294;DHT22;27037;52.010;4.446;2022-12-29T12:02:39;10.20;99.90
41294;DHT22;27037;52.010;4.446;2022-12-29T12:05:35;10.20;99.90
41294;DHT22;27037;52.010;4.446;2022-12-29T12:16:17;10.30;99.90
41294;DHT22;27037;52.010;4.446;2022-12-29T12:18:49;10.30;99.90
41294;DHT22;27037;52.010;4.446;2022-12-29T12:21:27;10.30;99.90
41294;DHT22;27037;52.010;4.446;2022-12-29T12:29:38;10.50;99.90
41294;DHT22;27037;52.010;4.446;2022-12-29T12:32:19;10.50;99.90
41294;DHT22;27037;52.010;4.446;2022-12-29T12:34:47;10.50;99.90
41294;DHT22;27037;52.010;4.446;2022-12-29T13:11:00;10.50;99.90
41294;DHT22;27037;52.010;4.446;2022-12-29T13:13:40;10.50;99.90
41294;DHT22;27037;52.010;4.446;2022-12-29T13:16:23;10.40;99.90
41294;DHT22;27037;52.010;4.446;2022-12-29T13:27:03;10.40;99.90
41294;DHT22;27037;52.010;4.446;2022-12-29T13:29:35;10.50;99.90
41294;DHT22;27037;52.010;4.446;2022-12-29T13:32:26;10.50;99.90
41294;DHT22;27037;52.010;4.446;2022-12-29T13:38:42;10.40;99.90
41294;DHT22;27037;52.010;4.446;2022-12-29T13:41:22;10.50;99.90
41294;DHT22;27037;52.010;4.446;2022-12-29T13:43:51;10.40;99.90
41294;DHT22;27037;52.010;4.446;2022-12-29T13:46:42;10.40;99.90
41294;DHT22;27037;52.010;4.446;2022-12-29T13:49:20;10.30;99.90
41294;DHT22;27037;52.010;4.446;2022-12-29T14:00:57;10.00;99.90
41294;DHT22;27037;52.010;4.446;2022-12-29T14:06:23;9.80;99.90
41294;DHT22;27037;52.010;4.446;2022-12-29T14:08:58;9.90;99.90
41294;DHT22;27037;52.010;4.446;2022-12-29T14:11:39;9.90;99.90
41294;DHT22;27037;52.010;4.446;2022-12-29T14:16:42;9.80;99.90
41294;DHT22;27037;52.010;4.446;2022-12-29T14:21:40;9.80;99.90
41294;DHT22;27037;52.010;4.446;2022-12-29T14:37:36;9.70;99.90
41294;DHT22;27037;52.010;4.446;2022-12-29T14:40:24;9.80;99.90
41294;DHT22;27037;52.010;4.446;2022-12-29T14:42:55;9.80;99.90
41294;DHT22;27037;52.010;4.446;2022-12-29T14:45:28;9.80;99.90
41294;DHT22;27037;52.010;4.446;2022-12-29T14:47:55;9.80;99.90
41294;DHT22;27037;52.010;4.446;2022-12-29T14:52:55;9.80;99.90
41294;DHT22;27037;52.010;4.446;2022-12-29T14:55:41;9.80;99.90
41294;DHT22;27037;52.010;4.446;2022-12-29T14:58:20;9.80;99.90
41294;DHT22;27037;52.010;4.446;2022-12-29T15:00:48;9.80;99.90
41294;DHT22;27037;52.010;4.446;2022-12-29T15:03:23;9.70;99.90
41294;DHT22;27037;52.010;4.446;2022-12-29T15:06:03;9.70;99.90
41294;DHT22;27037;52.010;4.446;2022-12-29T15:08:59;9.80;99.90
41294;DHT22;27037;52.010;4.446;2022-12-29T15:16:59;9.70;99.90
41294;DHT22;27037;52.010;4.446;2022-12-29T15:19:26;9.60;99.90
41294;DHT22;27037;52.010;4.446;2022-12-29T15:21:53;9.60;99.90
41294;DHT22;27037;52.010;4.446;2022-12-29T15:24:20;9.60;99.90
41294;DHT22;27037;52.010;4.446;2022-12-29T15:26:49;9.60;99.90
41294;DHT22;27037;52.010;4.446;2022-12-29T15:29:40;9.60;99.90
41294;DHT22;27037;52.010;4.446;2022-12-29T15:32:17;9.60;99.90
41294;DHT22;27037;52.010;4.446;2022-12-29T15:34:44;9.60;99.90
41294;DHT22;27037;52.010;4.446;2022-12-29T15:37:22;9.50;99.90
41294;DHT22;27037;52.010;4.446;2022-12-29T15:39:49;9.50;99.90
41294;DHT22;27037;52.010;4.446;2022-12-29T15:45:14;9.50;99.90
41294;DHT22;27037;52.010;4.446;2022-12-29T15:47:43;9.40;99.90
41294;DHT22;27037;52.010;4.446;2022-12-29T15:50:31;9.40;99.90
41294;DHT22;27037;52.010;4.446;2022-12-29T15:52:58;9.30;99.90
41294;DHT22;27037;52.010;4.446;2022-12-29T15:55:31;9.30;99.90
41294;DHT22;27037;52.010;4.446;2022-12-29T15:58:00;9.20;99.90
41294;DHT22;27037;52.010;4.446;2022-12-29T16:00:27;9.10;99.90
41294;DHT22;27037;52.010;4.446;2022-12-29T16:02:54;9.10;99.90
41294;DHT22;27037;52.010;4.446;2022-12-29T16:05:20;9.10;99.90
41294;DHT22;27037;52.010;4.446;2022-12-29T16:07:58;9.10;99.90
41294;DHT22;27037;52.010;4.446;2022-12-29T16:10:35;9.00;99.90
41294;DHT22;27037;52.010;4.446;2022-12-29T16:13:04;9.00;99.90
41294;DHT22;27037;52.010;4.446;2022-12-29T16:15:31;9.00;99.90
41294;DHT22;27037;52.010;4.446;2022-12-29T16:17:57;9.00;99.90
41294;DHT22;27037;52.010;4.446;2022-12-29T16:20:25;9.00;99.90
41294;DHT22;27037;52.010;4.446;2022-12-29T16:22:58;8.90;99.90
41294;DHT22;27037;52.010;4.446;2022-12-29T16:25:29;8.90;99.90
41294;DHT22;27037;52.010;4.446;2022-12-29T16:27:57;8.90;99.90
41294;DHT22;27037;52.010;4.446;2022-12-29T16:30:29;8.90;99.90
41294;DHT22;27037;52.010;4.446;2022-12-29T16:33:05;8.90;99.90
41294;DHT22;27037;52.010;4.446;2022-12-29T16:38:20;8.90;99.90
41294;DHT22;27037;52.010;4.446;2022-12-29T16:41:00;8.90;99.90
41294;DHT22;27037;52.010;4.446;2022-12-29T16:43:31;8.80;99.90
41294;DHT22;27037;52.010;4.446;2022-12-29T16:51:31;8.80;99.90
41294;DHT22;27037;52.010;4.446;2022-12-29T16:53:58;8.80;99.90
41294;DHT22;27037;52.010;4.446;2022-12-29T16:56:27;8.70;99.90
41294;DHT22;27037;52.010;4.446;2022-12-29T16:59:26;8.70;99.90
41294;DHT22;27037;52.010;4.446;2022-12-29T17:01:50;8.70;99.90
41294;DHT22;27037;52.010;4.446;2022-12-29T17:04:15;8.60;99.90
41294;DHT22;27037;52.010;4.446;2022-12-29T17:06:41;8.60;99.90
41294;DHT22;27037;52.010;4.446;2022-12-29T17:11:48;8.50;99.90
41294;DHT22;27037;52.010;4.446;2022-12-29T17:16:54;8.50;99.90
41294;DHT22;27037;52.010;4.446;2022-12-29T17:19:33;8.50;99.90
41294;DHT22;27037;52.010;4.446;2022-12-29T17:21:59;8.40;99.90
41294;DHT22;27037;52.010;4.446;2022-12-29T17:24:25;8.40;99.90
41294;DHT22;27037;52.010;4.446;2022-12-29T17:26:54;8.40;99.90
41294;DHT22;27037;52.010;4.446;2022-12-29T17:29:34;8.40;99.90
41294;DHT22;27037;52.010;4.446;2022-12-29T17:32:02;8.40;99.90
41294;DHT22;27037;52.010;4.446;2022-12-29T17:34:28;8.40;99.90
41294;DHT22;27037;52.010;4.446;2022-12-29T17:36:54;8.40;99.90
41294;DHT22;27037;52.010;4.446;2022-12-29T17:39:20;8.40;99.90
41294;DHT22;27037;52.010;4.446;2022-12-29T17:41:46;8.40;99.90
41294;DHT22;27037;52.010;4.446;2022-12-29T17:44:17;8.40;99.90
41294;DHT22;27037;52.010;4.446;2022-12-29T17:46:44;8.40;99.90
41294;DHT22;27037;52.010;4.446;2022-12-29T17:49:12;8.30;99.90
41294;DHT22;27037;52.010;4.446;2022-12-29T17:51:39;8.30;99.90
41294;DHT22;27037;52.010;4.446;2022-12-29T17:54:05;8.30;99.90
41294;DHT22;27037;52.010;4.446;2022-12-29T17:56:30;8.30;99.90
41294;DHT22;27037;52.010;4.446;2022-12-29T17:58:56;8.20;99.90
41294;DHT22;27037;52.010;4.446;2022-12-29T18:01:21;8.20;99.90
41294;DHT22;27037;52.010;4.446;2022-12-29T18:03:50;8.20;99.90
41294;DHT22;27037;52.010;4.446;2022-12-29T18:06:16;8.20;99.90
41294;DHT22;27037;52.010;4.446;2022-12-29T18:08:42;8.10;99.90
41294;DHT22;27037;52.010;4.446;2022-12-29T18:11:27;8.10;99.90
41294;DHT22;27037;52.010;4.446;2022-12-29T18:13:53;8.10;99.90
41294;DHT22;27037;52.010;4.446;2022-12-29T18:16:19;8.10;99.90
41294;DHT22;27037;52.010;4.446;2022-12-29T18:18:45;8.10;99.90
41294;DHT22;27037;52.010;4.446;2022-12-29T18:21:19;8.10;99.90
41294;DHT22;27037;52.010;4.446;2022-12-29T18:23:46;8.10;99.90
41294;DHT22;27037;52.010;4.446;2022-12-29T18:26:19;8.00;99.90
41294;DHT22;27037;52.010;4.446;2022-12-29T18:28:45;8.00;99.90
41294;DHT22;27037;52.010;4.446;2022-12-29T18:31:27;8.00;99.90
41294;DHT22;27037;52.010;4.446;2022-12-29T18:33:54;8.00;99.90
41294;DHT22;27037;52.010;4.446;2022-12-29T18:36:21;8.10;99.90
41294;DHT22;27037;52.010;4.446;2022-12-29T18:38:47;8.10;99.90
41294;DHT22;27037;52.010;4.446;2022-12-29T18:41:18;8.10;99.90
41294;DHT22;27037;52.010;4.446;2022-12-29T18:43:44;8.10;99.90
41294;DHT22;27037;52.010;4.446;2022-12-29T18:46:10;8.10;99.90
41294;DHT22;27037;52.010;4.446;2022-12-29T18:48:36;8.10;99.90
41294;DHT22;27037;52.010;4.446;2022-12-29T18:51:02;8.10;99.90
41294;DHT22;27037;52.010;4.446;2022-12-29T18:53:28;8.10;99.90
41294;DHT22;27037;52.010;4.446;2022-12-29T18:55:54;8.10;99.90
41294;DHT22;27037;52.010;4.446;2022-12-29T18:58:22;8.10;99.90